Ana Sayfa
METAR-TAF:

METAR-TAF

Havaalanları :

Danbury Municipal Airport

Danbury, Connecticut, Amerika Birleşik Devletleri

Enlem: 41-22-18N, Boylam: 073-29-04W, yükseklik: 139 m

Güncel hava durumu gözlemi

Rapor saat 23:53 UTC de 44 dakika önce yapıldı.
Rüzgar batıdan 12 kt ve 17 kt'a kadar ani rüzgarlar
Sıcaklık 1°C
Nem 55%
Basınç 1013 hPa
Görüş mesafesi: 16.1 km
6000 ft yükseklikte az bulutlu

METAR: KDXR 052353Z 28012G17KT 10SM FEW060 01/M07 A2992 RMK AO2 SLP136 T00111067 10039 20011 51035

Saat: 19:37 (00:37 UTC)


TAF: eksik

4.000'den fazla havaalanı için hava durumu gözlemleri ve tahminleri (METAR ve TAF raporları).

Kullanılabilir istasyonlar harita üzerinde sarı ve kırmızı noktalarla gösterilir.

İstasyonun adını görmek için fareyi noktanın üzerinde gezdirin.

Sonrasında hava gözlem ve tahminlerini görmek için tıklayın.

Haritayı değiştirmek için: yaklaştırmak için siyah artı işaretli yeşil düğmeye ve uzaklaştırmak için de eksi işaretli düğmeye hızla tıklayın; bitişik haritalar için yeşil okları kullanın.


METAR-TAF: